map of YEO home
Great Circle Mapper logo
YEO - Airport
Location
City:  Yeovilton, Somerset, England, United Kingdom
ICAO / IATA:EGDY / YEO

Details
Type:Airport (Aerodrome, Airfield)
Use:Military, International (customs port of entry)
Latitude:5100'34"N (51.009358)
Longitude:238'20"W (-2.638818)
Datum:WGS 1984
Elevation:75 ft (23 m)
Runways:2
Longest:7580 × 151 ft (2310 × 46 m), paved

Time
Time Zone:UTC+0 (DST+1)
Local Time:

Weather
METAR:EGDY 252050Z AUTO 20010KT 9999 OVC036/// 13/08 Q1021

Related Locations
Nearby:
Farthest:NZBA: 11955 mi / 19240 km
Balclutha, NZ

Find:

   beyond  
but within

Other Information
Maps:
NOTAMs:
Links:
Sources:

  
flag of United Kingdom
flag of England
  

Sectional Chart

Flight Planning
at skyvector.com

Satellite Image

Google Maps Satellite View

 

Copyright © 2004-2014 Karl L. Swartz. All rights reserved.
The Great Circle Mapper name and logo are trademarks of the Great Circle Mapper.
All other trademarks mentioned herein belong to their respective owners.
Please see credits for attibutions and further copyright information.

  Follow gcmap on Facebook Follow gcmap on Twitter

hCard Microformat

Geo Microformat